Time;durP1;ratioP1;P1;durP2;ratioP2;P2;SDS_P1;SDS_P2;PMS_P1;PMS_P2;Temp;Humidity;BMP_temperature;BMP_pressure;BME280_temperature;BME280_humidity;BME280_pressure;Samples;Min_cycle;Max_cycle;Signal;HPM_P1;HPM_P2
2022/05/28 00:01:20;;;;;;;;;;;11.50;99.90;;;;;;5106127;22;20241;-67
2022/05/28 00:03:48;;;;;;;;;;;11.40;99.90;;;;;;5105262;28;19920;-68
2022/05/28 00:06:16;;;;;;;;;;;11.40;99.90;;;;;;5104482;28;19928;-67
2022/05/28 00:08:43;;;;;;;;;;;11.40;99.90;;;;;;5104051;28;19920;-67
2022/05/28 00:11:13;;;;;;;;;;;11.40;99.90;;;;;;5102357;28;19920;-68
2022/05/28 00:13:40;;;;;;;;;;;11.40;99.90;;;;;;5104653;28;19920;-67
2022/05/28 00:16:08;;;;;;;;;;;11.40;99.90;;;;;;5104342;28;19942;-68
2022/05/28 00:18:37;;;;;;;;;;;11.40;99.90;;;;;;5104956;28;19926;-67
2022/05/28 00:21:03;;;;;;;;;;;11.30;99.90;;;;;;5104753;28;19920;-67
2022/05/28 00:23:30;;;;;;;;;;;11.30;99.90;;;;;;5104557;28;20217;-67
2022/05/28 00:25:57;;;;;;;;;;;11.20;99.90;;;;;;5102746;28;19928;-67
2022/05/28 00:28:23;;;;;;;;;;;11.20;99.90;;;;;;5104341;28;19927;-67
2022/05/28 00:30:50;;;;;;;;;;;11.20;99.90;;;;;;5104509;28;19926;-67
2022/05/28 00:33:18;;;;;;;;;;;11.10;99.90;;;;;;5104341;28;19924;-67
2022/05/28 00:35:44;;;;;;;;;;;11.00;99.90;;;;;;5103325;28;20231;-67
2022/05/28 00:38:11;;;;;;;;;;;11.00;99.90;;;;;;5104466;28;19920;-67
2022/05/28 00:40:37;;;;;;;;;;;11.00;99.90;;;;;;5104371;28;19920;-67
2022/05/28 00:43:05;;;;;;;;;;;10.90;99.90;;;;;;5104211;28;19920;-67
2022/05/28 00:45:33;;;;;;;;;;;10.90;99.90;;;;;;5103557;28;20233;-67
2022/05/28 00:48:03;;;;;;;;;;;10.90;99.90;;;;;;5101832;28;20204;-67
2022/05/28 00:50:31;;;;;;;;;;;10.80;99.90;;;;;;5104562;28;19920;-67
2022/05/28 00:52:57;;;;;;;;;;;10.80;99.90;;;;;;5104750;28;19920;-67
2022/05/28 00:55:24;;;;;;;;;;;10.80;99.90;;;;;;5103917;28;19920;-67
2022/05/28 00:57:51;;;;;;;;;;;10.70;99.90;;;;;;5102074;28;19920;-67
2022/05/28 01:00:19;;;;;;;;;;;10.70;99.90;;;;;;5104154;28;19924;-67
2022/05/28 01:02:49;;;;;;;;;;;10.70;99.90;;;;;;5104608;28;19920;-67
2022/05/28 01:05:20;;;;;;;;;;;10.70;99.90;;;;;;5103845;28;19920;-67
2022/05/28 01:07:52;;;;;;;;;;;10.60;99.90;;;;;;5104374;28;19920;-67
2022/05/28 01:10:23;;;;;;;;;;;10.60;99.90;;;;;;5101787;28;19932;-67
2022/05/28 01:12:53;;;;;;;;;;;10.60;99.90;;;;;;5104097;28;19927;-67
2022/05/28 01:15:22;;;;;;;;;;;10.60;99.90;;;;;;5103681;28;19920;-67
2022/05/28 01:17:51;;;;;;;;;;;10.60;99.90;;;;;;5104103;28;19962;-67
2022/05/28 01:20:19;;;;;;;;;;;10.50;99.90;;;;;;5103971;28;20138;-66
2022/05/28 01:22:56;;;;;;;;;;;10.40;99.90;;;;;;5103816;28;19920;-67
2022/05/28 01:25:27;;;;;;;;;;;10.40;99.90;;;;;;5103600;28;19928;-67
2022/05/28 01:27:58;;;;;;;;;;;10.30;99.90;;;;;;5104125;28;19939;-67
2022/05/28 01:30:24;;;;;;;;;;;10.30;99.90;;;;;;5104228;28;19927;-67
2022/05/28 01:32:52;;;;;;;;;;;10.30;99.90;;;;;;5104020;28;19927;-67
2022/05/28 01:35:20;;;;;;;;;;;10.20;99.90;;;;;;5102997;28;19920;-67
2022/05/28 01:37:47;;;;;;;;;;;10.20;99.90;;;;;;5103572;28;19920;-67
2022/05/28 01:40:15;;;;;;;;;;;10.20;99.90;;;;;;5103832;28;19928;-67
2022/05/28 01:42:43;;;;;;;;;;;10.20;99.90;;;;;;5103840;28;20241;-67
2022/05/28 01:45:13;;;;;;;;;;;10.10;99.90;;;;;;5103385;28;19920;-67
2022/05/28 01:47:42;;;;;;;;;;;10.10;99.90;;;;;;5103934;28;19920;-67
2022/05/28 01:50:10;;;;;;;;;;;10.00;99.90;;;;;;5103460;28;19920;-67
2022/05/28 01:52:36;;;;;;;;;;;10.00;99.90;;;;;;5103981;28;19927;-67
2022/05/28 01:55:03;;;;;;;;;;;9.90;99.90;;;;;;5103620;28;19920;-68
2022/05/28 01:57:31;;;;;;;;;;;9.70;99.90;;;;;;5100029;28;19928;-67
2022/05/28 01:59:58;;;;;;;;;;;9.70;99.90;;;;;;5103446;28;19920;-67
2022/05/28 02:02:26;;;;;;;;;;;9.60;99.90;;;;;;5104043;28;20115;-67
2022/05/28 02:04:52;;;;;;;;;;;9.60;99.90;;;;;;5103445;28;19926;-67
2022/05/28 02:07:19;;;;;;;;;;;9.70;99.90;;;;;;5102633;28;19942;-67
2022/05/28 02:09:47;;;;;;;;;;;9.60;99.90;;;;;;5103829;28;19920;-67
2022/05/28 02:12:19;;;;;;;;;;;9.60;99.90;;;;;;5101182;28;19924;-67
2022/05/28 02:14:52;;;;;;;;;;;9.50;99.90;;;;;;5103574;28;19920;-67
2022/05/28 02:17:21;;;;;;;;;;;9.50;99.90;;;;;;5103137;28;19924;-67
2022/05/28 02:19:54;;;;;;;;;;;9.40;99.90;;;;;;5103315;28;19926;-67
2022/05/28 02:22:27;;;;;;;;;;;9.40;99.90;;;;;;5103675;28;19920;-67
2022/05/28 02:25:08;;;;;;;;;;;9.30;99.90;;;;;;5103470;28;20119;-67
2022/05/28 02:27:36;;;;;;;;;;;9.30;99.90;;;;;;5103688;28;19920;-67
2022/05/28 02:30:03;;;;;;;;;;;9.20;99.90;;;;;;5103579;28;19920;-67
2022/05/28 02:32:30;;;;;;;;;;;9.20;99.90;;;;;;5103578;28;19920;-67
2022/05/28 02:34:58;;;;;;;;;;;9.20;99.90;;;;;;5103580;28;19931;-67
2022/05/28 02:37:25;;;;;;;;;;;9.20;99.90;;;;;;5102782;28;19926;-67
2022/05/28 02:39:52;;;;;;;;;;;9.20;99.90;;;;;;5103482;28;19924;-67
2022/05/28 02:42:18;;;;;;;;;;;9.10;99.90;;;;;;5103525;28;19920;-67
2022/05/28 02:44:45;;;;;;;;;;;9.00;99.90;;;;;;5103157;28;19964;-67
2022/05/28 02:47:11;;;;;;;;;;;9.00;99.90;;;;;;5102575;28;20211;-67
2022/05/28 02:49:38;;;;;;;;;;;8.90;99.90;;;;;;5105930;28;20118;-68
2022/05/28 02:52:07;;;;;;;;;;;8.90;99.90;;;;;;5107039;28;19920;-67
2022/05/28 02:54:34;;;;;;;;;;;8.90;99.90;;;;;;5106668;28;19920;-67
2022/05/28 02:57:02;;;;;;;;;;;8.90;99.90;;;;;;5103519;28;19920;-67
2022/05/28 02:59:29;;;;;;;;;;;8.90;99.90;;;;;;5106531;28;20207;-67
2022/05/28 03:01:55;;;;;;;;;;;8.90;99.90;;;;;;5106522;28;19920;-67
2022/05/28 03:04:22;;;;;;;;;;;8.80;99.90;;;;;;5106645;28;19920;-67
2022/05/28 03:06:49;;;;;;;;;;;8.70;99.90;;;;;;5106054;28;19926;-67
2022/05/28 03:09:16;;;;;;;;;;;8.70;99.90;;;;;;5106463;28;19920;-67
2022/05/28 03:11:43;;;;;;;;;;;8.60;99.90;;;;;;5103877;28;20358;-67
2022/05/28 03:14:10;;;;;;;;;;;8.60;99.90;;;;;;5106619;28;19920;-67
2022/05/28 03:16:37;;;;;;;;;;;8.60;99.90;;;;;;5105858;28;19927;-67
2022/05/28 03:19:03;;;;;;;;;;;8.60;99.90;;;;;;5106544;28;19981;-67
2022/05/28 03:21:31;;;;;;;;;;;8.60;99.90;;;;;;5105986;28;19927;-67
2022/05/28 03:23:57;;;;;;;;;;;8.60;99.90;;;;;;5106572;28;19927;-67
2022/05/28 03:26:26;;;;;;;;;;;8.60;99.90;;;;;;5105515;28;20170;-67
2022/05/28 03:28:53;;;;;;;;;;;8.50;99.90;;;;;;5106255;28;19942;-68
2022/05/28 03:31:20;;;;;;;;;;;8.50;99.90;;;;;;5106283;28;19920;-67
2022/05/28 03:33:47;;;;;;;;;;;8.50;99.90;;;;;;5106291;28;19920;-67
2022/05/28 03:36:13;;;;;;;;;;;8.50;99.90;;;;;;5105217;28;20223;-67
2022/05/28 03:38:40;;;;;;;;;;;8.50;99.90;;;;;;5106205;28;20112;-67
2022/05/28 03:41:07;;;;;;;;;;;8.50;99.90;;;;;;5105677;28;19942;-67
2022/05/28 03:43:34;;;;;;;;;;;8.50;99.90;;;;;;5105557;28;19920;-67
2022/05/28 03:46:02;;;;;;;;;;;8.50;99.90;;;;;;5105364;28;19924;-67
2022/05/28 03:48:29;;;;;;;;;;;8.50;99.90;;;;;;5105943;28;19920;-67
2022/05/28 03:50:55;;;;;;;;;;;8.40;99.90;;;;;;5105575;28;20138;-67
2022/05/28 03:53:22;;;;;;;;;;;8.40;99.90;;;;;;5105910;28;19920;-67
2022/05/28 03:55:49;;;;;;;;;;;8.30;99.90;;;;;;5105042;28;19927;-67
2022/05/28 03:58:15;;;;;;;;;;;8.30;99.90;;;;;;5102491;28;19920;-67
2022/05/28 04:00:43;;;;;;;;;;;8.30;99.90;;;;;;5104855;28;19920;-67
2022/05/28 04:03:10;;;;;;;;;;;8.30;99.90;;;;;;5105213;28;19920;-67
2022/05/28 04:05:37;;;;;;;;;;;8.30;99.90;;;;;;5104820;28;19927;-67
2022/05/28 04:08:03;;;;;;;;;;;8.30;99.90;;;;;;5105613;28;19927;-67
2022/05/28 04:10:33;;;;;;;;;;;8.30;99.90;;;;;;5102943;28;19926;-67
2022/05/28 04:13:00;;;;;;;;;;;8.40;99.90;;;;;;5105486;28;19920;-67
2022/05/28 04:15:28;;;;;;;;;;;8.30;99.90;;;;;;5104665;28;19920;-67
2022/05/28 04:17:56;;;;;;;;;;;8.40;99.90;;;;;;5105357;28;20134;-67
2022/05/28 04:20:23;;;;;;;;;;;8.40;99.90;;;;;;5104787;28;19928;-67
2022/05/28 04:22:49;;;;;;;;;;;8.50;99.90;;;;;;5105362;28;19927;-67
2022/05/28 04:25:16;;;;;;;;;;;8.60;99.90;;;;;;5104583;28;19926;-67
2022/05/28 04:27:43;;;;;;;;;;;8.60;99.90;;;;;;5104627;28;19920;-67
2022/05/28 04:30:10;;;;;;;;;;;8.70;99.90;;;;;;5104718;28;19927;-67
2022/05/28 04:32:37;;;;;;;;;;;8.70;99.90;;;;;;5104928;28;19920;-67
2022/05/28 04:35:05;;;;;;;;;;;8.80;99.90;;;;;;5104937;28;19926;-67
2022/05/28 04:37:32;;;;;;;;;;;8.80;99.90;;;;;;5104303;28;19920;-67
2022/05/28 04:39:58;;;;;;;;;;;8.80;99.90;;;;;;5104895;28;20119;-68
2022/05/28 04:42:25;;;;;;;;;;;8.80;99.90;;;;;;5104718;28;19983;-67
2022/05/28 04:44:52;;;;;;;;;;;8.90;99.90;;;;;;5104446;28;19920;-67
2022/05/28 04:47:18;;;;;;;;;;;9.00;99.90;;;;;;5103815;28;19920;-67
2022/05/28 04:49:45;;;;;;;;;;;9.10;99.90;;;;;;5104395;28;19926;-67
2022/05/28 04:52:13;;;;;;;;;;;9.20;99.90;;;;;;5104817;28;19919;-67
2022/05/28 04:54:39;;;;;;;;;;;9.20;99.90;;;;;;5104576;28;20089;-66
2022/05/28 04:57:06;;;;;;;;;;;9.30;99.90;;;;;;5101336;28;19986;-67
2022/05/28 04:59:33;;;;;;;;;;;9.30;99.90;;;;;;5104331;28;19942;-67
2022/05/28 05:01:59;;;;;;;;;;;9.30;99.90;;;;;;5104052;28;19920;-67
2022/05/28 05:04:26;;;;;;;;;;;9.40;99.90;;;;;;5084092;28;19920;-67
2022/05/28 05:06:52;;;;;;;;;;;9.30;99.90;;;;;;5083614;28;19920;-67
2022/05/28 05:09:20;;;;;;;;;;;9.30;99.90;;;;;;5092577;28;19927;-68
2022/05/28 05:11:49;;;;;;;;;;;9.40;99.90;;;;;;5101229;28;19920;-67
2022/05/28 05:14:15;;;;;;;;;;;9.50;99.90;;;;;;5104423;28;20115;-67
2022/05/28 05:16:42;;;;;;;;;;;9.50;99.90;;;;;;5103479;28;19923;-67
2022/05/28 05:19:09;;;;;;;;;;;9.50;99.90;;;;;;5103875;28;19927;-69
2022/05/28 05:21:35;;;;;;;;;;;9.50;99.90;;;;;;5103693;28;19920;-68
2022/05/28 05:24:02;;;;;;;;;;;9.50;99.90;;;;;;5103751;28;19920;-70
2022/05/28 05:26:30;;;;;;;;;;;9.60;99.90;;;;;;5103589;28;19927;-68
2022/05/28 05:28:56;;;;;;;;;;;9.60;99.90;;;;;;5103799;28;19920;-67
2022/05/28 05:31:23;;;;;;;;;;;9.70;99.90;;;;;;5103911;28;19920;-68
2022/05/28 05:33:50;;;;;;;;;;;9.70;99.90;;;;;;5103633;28;20230;-68
2022/05/28 05:36:16;;;;;;;;;;;9.80;99.90;;;;;;5103293;28;19953;-69
2022/05/28 05:38:43;;;;;;;;;;;9.90;99.90;;;;;;5104040;28;19920;-68
2022/05/28 05:41:10;;;;;;;;;;;10.00;99.90;;;;;;5103724;28;19951;-68
2022/05/28 05:43:39;;;;;;;;;;;10.10;99.90;;;;;;5103633;28;20236;-67
2022/05/28 05:46:05;;;;;;;;;;;10.20;99.90;;;;;;5103196;28;19927;-67
2022/05/28 05:48:32;;;;;;;;;;;10.20;99.90;;;;;;5103501;28;20300;-68
2022/05/28 05:51:04;;;;;;;;;;;10.30;99.90;;;;;;5100780;28;20238;-68
2022/05/28 05:53:31;;;;;;;;;;;10.30;99.90;;;;;;5100686;28;20092;-68
2022/05/28 05:55:57;;;;;;;;;;;10.50;99.90;;;;;;5102967;28;19920;-68
2022/05/28 05:58:24;;;;;;;;;;;10.50;99.90;;;;;;5103682;28;19920;-68
2022/05/28 06:00:52;;;;;;;;;;;10.50;99.90;;;;;;5103426;22;20130;-68
2022/05/28 06:03:19;;;;;;;;;;;10.50;99.90;;;;;;5083034;28;19927;-67
2022/05/28 06:05:45;;;;;;;;;;;10.50;99.90;;;;;;5075196;28;20211;-68
2022/05/28 06:08:12;;;;;;;;;;;10.60;99.90;;;;;;5081270;28;20217;-67
2022/05/28 06:10:39;;;;;;;;;;;10.60;99.90;;;;;;5082992;28;19927;-68
2022/05/28 06:13:05;;;;;;;;;;;10.70;99.90;;;;;;5083426;28;19970;-68
2022/05/28 06:15:32;;;;;;;;;;;10.80;99.90;;;;;;5072663;28;19928;-67
2022/05/28 06:18:00;;;;;;;;;;;10.70;99.90;;;;;;5043002;28;19921;-67
2022/05/28 06:20:26;;;;;;;;;;;10.70;99.90;;;;;;5052092;28;19921;-67
2022/05/28 06:22:53;;;;;;;;;;;10.80;99.90;;;;;;5072276;28;20212;-67
2022/05/28 06:25:20;;;;;;;;;;;10.70;99.90;;;;;;5069011;28;20115;-67
2022/05/28 06:27:47;;;;;;;;;;;10.70;99.90;;;;;;5066119;28;19920;-67
2022/05/28 06:30:14;;;;;;;;;;;10.70;99.90;;;;;;5064966;28;19925;-67
2022/05/28 06:32:40;;;;;;;;;;;10.80;99.90;;;;;;5066587;28;19950;-67
2022/05/28 06:35:09;;;;;;;;;;;10.80;99.90;;;;;;5066198;28;19925;-67
2022/05/28 06:37:36;;;;;;;;;;;10.90;99.90;;;;;;5077110;28;19920;-67
2022/05/28 06:40:03;;;;;;;;;;;11.00;99.90;;;;;;5081327;28;20231;-67
2022/05/28 06:42:30;;;;;;;;;;;11.00;99.90;;;;;;5066622;28;19943;-67
2022/05/28 06:44:56;;;;;;;;;;;11.10;99.90;;;;;;5065039;28;19921;-67
2022/05/28 06:47:23;;;;;;;;;;;11.10;99.90;;;;;;5064730;28;19920;-67
2022/05/28 06:51:01;;;;;;;;;;;11.10;99.90;;;;;;5065407;28;19967;-67
2022/05/28 06:52:38;;;;;;;;;;;11.10;99.90;;;;;;5047985;28;19921;-67
2022/05/28 06:55:05;;;;;;;;;;;11.20;99.90;;;;;;5081442;28;20151;-67
2022/05/28 06:57:32;;;;;;;;;;;11.20;99.90;;;;;;5064105;28;19921;-66
2022/05/28 06:59:58;;;;;;;;;;;11.20;99.90;;;;;;5066589;28;19921;-66
2022/05/28 07:02:25;;;;;;;;;;;11.30;99.90;;;;;;5071351;28;19928;-66
2022/05/28 07:04:52;;;;;;;;;;;11.40;99.90;;;;;;5076493;28;19987;-67
2022/05/28 07:07:18;;;;;;;;;;;11.40;99.90;;;;;;5074996;28;19947;-66
2022/05/28 07:09:46;;;;;;;;;;;11.50;99.90;;;;;;5074818;28;19920;-67
2022/05/28 07:12:13;;;;;;;;;;;11.50;99.90;;;;;;5076689;28;20155;-66
2022/05/28 07:14:39;;;;;;;;;;;11.60;99.90;;;;;;5073621;28;19921;-66
2022/05/28 07:17:06;;;;;;;;;;;11.60;99.90;;;;;;5071463;28;20170;-67
2022/05/28 07:19:32;;;;;;;;;;;11.60;99.90;;;;;;5078346;28;19920;-67
2022/05/28 07:21:59;;;;;;;;;;;11.70;99.90;;;;;;5071979;28;19935;-66
2022/05/28 07:24:26;;;;;;;;;;;11.70;99.90;;;;;;5074555;28;20003;-66
2022/05/28 07:26:54;;;;;;;;;;;11.80;99.90;;;;;;5061773;28;19921;-65
2022/05/28 07:29:20;;;;;;;;;;;11.80;99.90;;;;;;5065207;28;19932;-66
2022/05/28 07:31:47;;;;;;;;;;;11.80;99.90;;;;;;5065183;28;20127;-66
2022/05/28 07:34:14;;;;;;;;;;;11.80;99.90;;;;;;5079564;28;19928;-66
2022/05/28 07:36:40;;;;;;;;;;;11.70;99.90;;;;;;5084957;28;20123;-67
2022/05/28 07:39:07;;;;;;;;;;;11.80;99.90;;;;;;5068266;28;19921;-66
2022/05/28 07:41:35;;;;;;;;;;;11.90;99.90;;;;;;5064369;28;19928;-66
2022/05/28 07:44:03;;;;;;;;;;;11.90;99.90;;;;;;5062310;28;19963;-66
2022/05/28 07:46:31;;;;;;;;;;;12.10;99.90;;;;;;5063758;28;19920;-66
2022/05/28 07:48:58;;;;;;;;;;;12.20;99.90;;;;;;5061805;28;19944;-66
2022/05/28 07:51:25;;;;;;;;;;;12.40;99.90;;;;;;5064310;28;20112;-66
2022/05/28 07:53:52;;;;;;;;;;;12.50;99.90;;;;;;5066379;28;19920;-66
2022/05/28 07:56:19;;;;;;;;;;;12.50;99.90;;;;;;5063433;28;19927;-66
2022/05/28 07:58:45;;;;;;;;;;;12.60;99.90;;;;;;5063864;28;19928;-66
2022/05/28 08:01:19;;;;;;;;;;;12.60;99.90;;;;;;5063850;28;19921;-66
2022/05/28 08:03:46;;;;;;;;;;;12.70;99.90;;;;;;5063330;28;20208;-66
2022/05/28 08:06:13;;;;;;;;;;;12.70;99.90;;;;;;5064191;28;19921;-66
2022/05/28 08:08:39;;;;;;;;;;;12.70;99.90;;;;;;5063343;28;19921;-65
2022/05/28 08:11:06;;;;;;;;;;;12.70;99.90;;;;;;5068279;28;19921;-66
2022/05/28 08:13:32;;;;;;;;;;;12.70;99.90;;;;;;5065531;28;19928;-66
2022/05/28 08:16:00;;;;;;;;;;;12.70;99.90;;;;;;5063004;28;19928;-66
2022/05/28 08:18:28;;;;;;;;;;;12.80;99.90;;;;;;5063634;28;20216;-66
2022/05/28 08:23:40;;;;;;;;;;;12.90;99.90;;;;;;5063578;28;19971;-66
2022/05/28 08:26:07;;;;;;;;;;;12.90;99.90;;;;;;5059594;28;20301;-66
2022/05/28 08:28:35;;;;;;;;;;;12.80;99.90;;;;;;5065064;28;19928;-66
2022/05/28 08:31:02;;;;;;;;;;;13.00;99.90;;;;;;5063395;28;19920;-66
2022/05/28 08:33:30;;;;;;;;;;;13.00;99.90;;;;;;5063412;28;19927;-66
2022/05/28 08:35:57;;;;;;;;;;;12.90;99.90;;;;;;5062461;28;19921;-66
2022/05/28 08:38:24;;;;;;;;;;;13.00;99.90;;;;;;5058809;28;19921;-66
2022/05/28 08:40:54;;;;;;;;;;;13.10;99.90;;;;;;5062650;28;19928;-66
2022/05/28 08:43:21;;;;;;;;;;;13.20;99.90;;;;;;5066270;28;19924;-66
2022/05/28 08:45:49;;;;;;;;;;;13.10;99.90;;;;;;5062567;28;19921;-66
2022/05/28 08:48:17;;;;;;;;;;;13.00;99.90;;;;;;5063577;28;19921;-66
2022/05/28 08:50:48;;;;;;;;;;;13.10;99.90;;;;;;5063593;28;19921;-66
2022/05/28 08:53:16;;;;;;;;;;;13.20;99.90;;;;;;5063725;28;19920;-66
2022/05/28 08:55:43;;;;;;;;;;;13.20;99.90;;;;;;5070407;28;19921;-66
2022/05/28 08:58:11;;;;;;;;;;;13.30;99.90;;;;;;5063615;28;19944;-66
2022/05/28 09:00:41;;;;;;;;;;;13.40;99.90;;;;;;5063615;28;19921;-66
2022/05/28 09:03:08;;;;;;;;;;;13.40;99.90;;;;;;5063610;28;20132;-66
2022/05/28 09:05:38;;;;;;;;;;;13.40;99.90;;;;;;5063008;28;19929;-66
2022/05/28 09:08:07;;;;;;;;;;;13.50;99.90;;;;;;5063442;28;19921;-66
2022/05/28 09:10:36;;;;;;;;;;;13.50;99.90;;;;;;5064232;28;19995;-66
2022/05/28 09:13:05;;;;;;;;;;;13.70;99.90;;;;;;5063532;28;19928;-66
2022/05/28 09:15:33;;;;;;;;;;;13.90;99.90;;;;;;5062603;28;19949;-66
2022/05/28 09:18:00;;;;;;;;;;;13.90;99.90;;;;;;5063106;28;19927;-66
2022/05/28 09:20:30;;;;;;;;;;;13.80;99.90;;;;;;5063385;28;19920;-66
2022/05/28 09:22:57;;;;;;;;;;;13.70;99.90;;;;;;5061003;28;19927;-66
2022/05/28 09:25:25;;;;;;;;;;;13.60;99.90;;;;;;5059777;28;20263;-66
2022/05/28 09:27:57;;;;;;;;;;;13.50;99.90;;;;;;5063576;28;20155;-66
2022/05/28 09:30:28;;;;;;;;;;;13.50;99.90;;;;;;5063288;28;19921;-66
2022/05/28 09:33:07;;;;;;;;;;;13.60;99.90;;;;;;5058381;28;19992;-66
2022/05/28 09:35:43;;;;;;;;;;;13.60;99.90;;;;;;5059393;28;20212;-66
2022/05/28 09:38:12;;;;;;;;;;;13.60;99.90;;;;;;5062465;28;19921;-66
2022/05/28 09:40:43;;;;;;;;;;;13.70;99.90;;;;;;5059604;28;20216;-66
2022/05/28 09:43:28;;;;;;;;;;;13.90;99.90;;;;;;5062685;28;19928;-66
2022/05/28 09:46:00;;;;;;;;;;;14.00;99.90;;;;;;5059667;28;20099;-66
2022/05/28 09:48:28;;;;;;;;;;;14.00;99.90;;;;;;5066456;28;19936;-66
2022/05/28 09:50:55;;;;;;;;;;;14.20;99.90;;;;;;5060452;28;19920;-67
2022/05/28 09:56:11;;;;;;;;;;;14.20;99.90;;;;;;5061571;28;20840;-66
2022/05/28 09:58:39;;;;;;;;;;;14.30;99.90;;;;;;5065273;28;20211;-66
2022/05/28 10:01:06;;;;;;;;;;;14.40;99.90;;;;;;5064019;28;19921;-66
2022/05/28 10:06:18;;;;;;;;;;;14.50;99.90;;;;;;5067119;28;19931;-66
2022/05/28 10:08:45;;;;;;;;;;;14.60;99.90;;;;;;5066797;28;20120;-66
2022/05/28 10:11:17;;;;;;;;;;;14.60;99.90;;;;;;5066721;28;19931;-66
2022/05/28 10:13:45;;;;;;;;;;;14.80;99.90;;;;;;5068213;28;19952;-66
2022/05/28 10:16:12;;;;;;;;;;;14.90;99.90;;;;;;5061459;28;19921;-66
2022/05/28 10:18:41;;;;;;;;;;;15.00;99.90;;;;;;5066702;28;20147;-66
2022/05/28 10:21:09;;;;;;;;;;;15.10;99.90;;;;;;5066422;28;19929;-67
2022/05/28 10:23:36;;;;;;;;;;;15.10;99.90;;;;;;5066351;28;19924;-67
2022/05/28 10:26:04;;;;;;;;;;;15.10;99.90;;;;;;5060562;28;20215;-66
2022/05/28 10:28:32;;;;;;;;;;;15.00;99.90;;;;;;5066441;28;19963;-66
2022/05/28 10:30:59;;;;;;;;;;;15.00;99.90;;;;;;5066847;28;20089;-66
2022/05/28 10:33:27;;;;;;;;;;;15.00;99.90;;;;;;5066291;28;19921;-67
2022/05/28 10:35:56;;;;;;;;;;;15.00;99.90;;;;;;5062648;28;19974;-66
2022/05/28 10:38:24;;;;;;;;;;;15.10;99.90;;;;;;5066284;28;20239;-66
2022/05/28 10:40:51;;;;;;;;;;;15.20;99.90;;;;;;5066513;28;19987;-66
2022/05/28 10:43:23;;;;;;;;;;;15.30;99.90;;;;;;5066114;28;19929;-67
2022/05/28 10:45:53;;;;;;;;;;;15.50;99.90;;;;;;5065047;28;19921;-66
2022/05/28 10:48:27;;;;;;;;;;;15.80;99.90;;;;;;5066297;28;19921;-66
2022/05/28 10:50:59;;;;;;;;;;;15.90;99.90;;;;;;5066100;28;19952;-66
2022/05/28 10:53:33;;;;;;;;;;;16.00;99.90;;;;;;5066144;28;20211;-66
2022/05/28 10:56:09;;;;;;;;;;;16.10;99.90;;;;;;5064953;28;19920;-65
2022/05/28 10:58:39;;;;;;;;;;;16.00;99.90;;;;;;5066337;28;20124;-66
2022/05/28 11:01:22;;;;;;;;;;;15.90;99.90;;;;;;5066300;28;19921;-66
2022/05/28 11:03:58;;;;;;;;;;;15.90;99.90;;;;;;5066185;28;19928;-66
2022/05/28 11:06:43;;;;;;;;;;;16.10;99.90;;;;;;5065694;28;19944;-66
2022/05/28 11:09:15;;;;;;;;;;;16.10;99.90;;;;;;5059913;28;19943;-66
2022/05/28 11:11:46;;;;;;;;;;;16.10;99.90;;;;;;5066279;28;19928;-66
2022/05/28 11:14:34;;;;;;;;;;;15.90;99.90;;;;;;5046198;28;19921;-66
2022/05/28 11:17:08;;;;;;;;;;;15.80;99.90;;;;;;5045504;28;19927;-66
2022/05/28 11:19:41;;;;;;;;;;;15.60;99.90;;;;;;5063081;28;19927;-64
2022/05/28 11:22:21;;;;;;;;;;;15.70;99.90;;;;;;5064561;28;19921;-64
2022/05/28 11:25:01;;;;;;;;;;;15.90;99.90;;;;;;5062531;28;19935;-63
2022/05/28 11:27:42;;;;;;;;;;;16.10;99.90;;;;;;5064095;28;20220;-65
2022/05/28 11:30:13;;;;;;;;;;;16.20;99.90;;;;;;5063035;28;19924;-64
2022/05/28 11:32:43;;;;;;;;;;;16.20;99.90;;;;;;5065879;28;19992;-64
2022/05/28 11:35:14;;;;;;;;;;;16.10;99.90;;;;;;5071534;28;19935;-64
2022/05/28 11:37:42;;;;;;;;;;;15.80;99.90;;;;;;5065658;28;19927;-65
2022/05/28 11:40:12;;;;;;;;;;;15.90;99.90;;;;;;5065894;28;20092;-64
2022/05/28 11:42:43;;;;;;;;;;;16.00;99.90;;;;;;5063543;28;19921;-64
2022/05/28 11:45:14;;;;;;;;;;;16.20;99.90;;;;;;5065342;28;19920;-64
2022/05/28 11:47:45;;;;;;;;;;;16.20;99.90;;;;;;5065283;28;19921;-65
2022/05/28 11:53:06;;;;;;;;;;;16.20;99.90;;;;;;5084177;28;19955;-65
2022/05/28 11:55:34;;;;;;;;;;;16.60;99.90;;;;;;5075203;28;19920;-64
2022/05/28 11:58:04;;;;;;;;;;;16.90;99.90;;;;;;5084236;28;20280;-65
2022/05/28 12:03:01;;;;;;;;;;;17.30;99.90;;;;;;5077213;28;20234;-64
2022/05/28 12:05:40;;;;;;;;;;;17.50;99.90;;;;;;5084127;28;19927;-64
2022/05/28 12:08:08;;;;;;;;;;;17.60;99.90;;;;;;5066348;28;19927;-64
2022/05/28 12:10:39;;;;;;;;;;;17.80;99.90;;;;;;5065108;28;19935;-63
2022/05/28 12:13:06;;;;;;;;;;;17.80;99.80;;;;;;5065106;28;19927;-63
2022/05/28 12:15:34;;;;;;;;;;;17.80;99.60;;;;;;5073861;28;19920;-64
2022/05/28 12:18:05;;;;;;;;;;;17.80;99.90;;;;;;5082737;28;19920;-64
2022/05/28 12:20:33;;;;;;;;;;;18.00;99.90;;;;;;5079644;28;19927;-64
2022/05/28 12:23:01;;;;;;;;;;;18.00;99.40;;;;;;5084424;28;20211;-64
2022/05/28 12:25:35;;;;;;;;;;;18.10;99.90;;;;;;5080311;28;20212;-64
2022/05/28 12:28:08;;;;;;;;;;;18.10;99.90;;;;;;5073181;28;20150;-64
2022/05/28 12:30:48;;;;;;;;;;;18.30;99.50;;;;;;5073961;28;20194;-64
2022/05/28 12:33:25;;;;;;;;;;;18.50;99.90;;;;;;5075003;28;19924;-64
2022/05/28 12:35:54;;;;;;;;;;;18.70;99.70;;;;;;5070616;28;19920;-64
2022/05/28 12:38:38;;;;;;;;;;;18.50;97.20;;;;;;5081560;28;19947;-64
2022/05/28 12:41:06;;;;;;;;;;;18.50;97.00;;;;;;5063932;28;19920;-64
2022/05/28 12:43:34;;;;;;;;;;;18.50;97.30;;;;;;5084339;28;19920;-64
2022/05/28 12:46:12;;;;;;;;;;;18.60;96.80;;;;;;5083311;28;20208;-64
2022/05/28 12:48:40;;;;;;;;;;;18.60;96.50;;;;;;5084366;28;19920;-64
2022/05/28 12:51:22;;;;;;;;;;;18.70;96.90;;;;;;5084074;28;19928;-64
2022/05/28 12:53:50;;;;;;;;;;;18.80;97.50;;;;;;5073094;28;19921;-66
2022/05/28 12:56:28;;;;;;;;;;;19.00;97.60;;;;;;5081449;28;19942;-65
2022/05/28 12:59:06;;;;;;;;;;;18.90;96.90;;;;;;5082363;28;19924;-65
2022/05/28 13:01:35;;;;;;;;;;;19.00;96.90;;;;;;5083664;28;19920;-66
2022/05/28 13:04:07;;;;;;;;;;;18.90;96.40;;;;;;5083805;28;19956;-65
2022/05/28 13:06:36;;;;;;;;;;;18.60;96.30;;;;;;5081401;28;19924;-65
2022/05/28 13:09:04;;;;;;;;;;;18.70;96.90;;;;;;5083729;28;20204;-65
2022/05/28 13:11:32;;;;;;;;;;;18.90;93.60;;;;;;5083560;28;19920;-66
2022/05/28 13:14:07;;;;;;;;;;;19.20;93.40;;;;;;5083761;28;19920;-64
2022/05/28 13:16:41;;;;;;;;;;;19.40;95.10;;;;;;5077547;28;19935;-64
2022/05/28 13:19:20;;;;;;;;;;;19.60;94.70;;;;;;5082869;28;19928;-64
2022/05/28 13:21:57;;;;;;;;;;;19.80;94.90;;;;;;5063770;28;20107;-65
2022/05/28 13:24:54;;;;;;;;;;;19.80;94.40;;;;;;5063699;28;19929;-65
2022/05/28 13:27:27;;;;;;;;;;;20.00;94.40;;;;;;5021456;28;19922;-66
2022/05/28 13:30:07;;;;;;;;;;;20.20;93.30;;;;;;5055513;28;19983;-65
2022/05/28 13:32:38;;;;;;;;;;;20.30;94.30;;;;;;5071751;28;19920;-64
2022/05/28 13:35:08;;;;;;;;;;;20.40;93.90;;;;;;5083734;28;20119;-64
2022/05/28 13:37:35;;;;;;;;;;;20.20;92.50;;;;;;5083140;28;19928;-66
2022/05/28 13:40:02;;;;;;;;;;;20.10;93.00;;;;;;5083761;28;19936;-67
2022/05/28 13:42:29;;;;;;;;;;;20.10;92.90;;;;;;5083692;28;19921;-67
2022/05/28 13:44:57;;;;;;;;;;;19.80;92.60;;;;;;5083666;28;19983;-67
2022/05/28 13:47:26;;;;;;;;;;;19.60;92.40;;;;;;5067933;28;19926;-67
2022/05/28 13:49:53;;;;;;;;;;;19.20;92.60;;;;;;5070620;28;19927;-67
2022/05/28 13:52:21;;;;;;;;;;;19.00;93.00;;;;;;5063235;28;19921;-70
2022/05/28 13:54:56;;;;;;;;;;;18.70;92.60;;;;;;5063564;28;20241;-66
2022/05/28 13:57:34;;;;;;;;;;;18.70;93.40;;;;;;5079709;28;19932;-66
2022/05/28 14:00:00;;;;;;;;;;;18.80;93.80;;;;;;5078019;28;19920;-66
2022/05/28 14:02:27;;;;;;;;;;;18.70;93.10;;;;;;5066607;28;19927;-65
2022/05/28 14:04:54;;;;;;;;;;;18.60;93.60;;;;;;5072301;28;19925;-64
2022/05/28 14:07:25;;;;;;;;;;;18.50;92.30;;;;;;5081784;28;20298;-66
2022/05/28 14:09:52;;;;;;;;;;;18.50;92.90;;;;;;5083058;28;19920;-66
2022/05/28 14:12:20;;;;;;;;;;;18.90;92.90;;;;;;5083337;28;19921;-67
2022/05/28 14:14:47;;;;;;;;;;;19.00;92.20;;;;;;5082055;28;19920;-67
2022/05/28 14:17:18;;;;;;;;;;;19.20;91.70;;;;;;5074222;28;19920;-66
2022/05/28 14:19:47;;;;;;;;;;;19.10;91.40;;;;;;5063248;28;20111;-65
2022/05/28 14:22:20;;;;;;;;;;;19.40;91.50;;;;;;5073583;28;19921;-66
2022/05/28 14:24:48;;;;;;;;;;;19.70;91.60;;;;;;5082357;28;19926;-66
2022/05/28 14:27:17;;;;;;;;;;;19.90;91.30;;;;;;5081783;28;19926;-66
2022/05/28 14:29:45;;;;;;;;;;;19.90;90.70;;;;;;5082928;28;19920;-66
2022/05/28 14:32:13;;;;;;;;;;;20.10;91.50;;;;;;5081396;28;19920;-67
2022/05/28 14:34:41;;;;;;;;;;;20.20;91.70;;;;;;5083205;28;19974;-66
2022/05/28 14:37:08;;;;;;;;;;;20.00;91.70;;;;;;5082091;28;19963;-66
2022/05/28 14:39:42;;;;;;;;;;;19.50;92.20;;;;;;5082745;28;19927;-65
2022/05/28 14:42:11;;;;;;;;;;;19.20;92.50;;;;;;5083076;28;20200;-67
2022/05/28 14:44:40;;;;;;;;;;;18.90;93.70;;;;;;5082870;28;19927;-65